Terminal Aerodrome Forecast
Issued by NWS

Home | Current Version | Previous Version | Graphics & Text | Print | Product List | Glossary On
Versions: 1 2 3 4 5 6 7 8 9 10 11 12 13 14 15 16 17 18 19 20
402
FTUS43 KGRB 220525
TAFAUW
TAF
KAUW 220525Z 2206/2306 20006KT P6SM SCT100 WS010/23035KT
     FM221300 21007KT P6SM SCT100 BKN250
     FM222000 15006KT P6SM SCT050 BKN120
     FM230100 31007KT P6SM SCT015 BKN025=

USA.gov is the U.S. government's official web portal to all federal, state and local government web resources and services.